Edson Airport
CYET : now visible

Airfield :











YOU CAN JOIN US ON...

 
LOGIN :

Register | Disclaimer

   EN    FR    IT 

 









Legend :    VFR   Marginal VFR   IFR   Intensive IFR   Very Intensive IFR
Visi :
Ceiling :
>= 8 km
>= 3000ft
5 to 8 km
1000 to 3000 ft
1500m to 5 km
500 to 1000 ft
800 to 1500m
200 to 500 ft
< 800m
< 200 ft
Symbols :   Thunderstorms  Fog  Heavy snow  Heavy precipitations  Wind > 20 kt






- Airport Elevation : 3041 ft
- IATA code : YET


CYET - Edson

CURRENT METAR :
  • 230944Z AUTO 29003KT 8SM BKN030 BKN046 02/02 A2996 RMK SLP181

EXPIRED METARs :
  • 230915Z AUTO 27003KT 1 1/4SM BR FEW030 02/02 A2996 RMK SLP180
  • 230806Z AUTO 27004KT 6SM BR SCT024 BKN033 BKN043 05/05 A2997 RMK SLP176
  • 230709Z AUTO VRB02KT 9SM FEW046 OVC066 06/05 A2997 RMK SLP175
  • 230700Z AUTO VRB02KT 9SM -RA SCT046 OVC066 07/05 A2998 RMK SLP172
  • 230651Z AUTO VRB02KT 9SM -RA BKN043 OVC055 06/05 A2998 RMK SLP177
  • 230631Z AUTO VRB02KT 9SM -RA OVC039 07/05 A2998 RMK SLP178
  • 230600Z AUTO 36004KT 9SM FEW025 OVC034 07/05 A2999 RMK SLP178
  • 230500Z AUTO 26003KT 9SM BKN076 OVC090 07/06 A2998 RMK SLP173

TAF N/A
CZEG FIR / North America



MET'MAP, your aeronautical weather chart ! - Copyright ORBIFLY December 2007 - Disclaimer

ORBIFLY MET'MAP TEAM :

Programming & Development : Alexandra Zaïnal
Original concept : Baudouin d'Aumeries
Technical & hardware support : Manuel Goepfert
Assistance : Marc-Olivier Méhu




SOURCES & CREDITS :

   NOAA       Earth
Advisory